createdAt,value
2023-04-08T00:00:55.509Z,4.71
2023-04-08T00:03:23.779Z,4.70
2023-04-08T00:05:51.906Z,4.70
2023-04-08T00:08:20.291Z,4.70
2023-04-08T00:10:49.794Z,4.73
2023-04-08T00:13:18.110Z,4.73
2023-04-08T00:15:47.016Z,4.74
2023-04-08T00:18:15.653Z,4.71
2023-04-08T00:20:44.174Z,4.74
2023-04-08T00:23:12.400Z,4.73
2023-04-08T00:25:41.102Z,4.74
2023-04-08T00:28:10.628Z,4.74
2023-04-08T00:30:38.830Z,4.76
2023-04-08T00:33:07.124Z,4.76
2023-04-08T00:35:35.572Z,4.77
2023-04-08T00:38:04.258Z,4.77
2023-04-08T00:40:32.518Z,4.77
2023-04-08T00:43:00.742Z,4.78
2023-04-08T00:45:30.823Z,4.78
2023-04-08T00:47:59.016Z,4.80
2023-04-08T00:50:27.095Z,4.80
2023-04-08T00:52:55.146Z,4.81
2023-04-08T00:55:23.354Z,4.83
2023-04-08T00:57:51.404Z,4.83
2023-04-08T01:00:21.735Z,4.84
2023-04-08T01:02:56.980Z,4.84
2023-04-08T01:05:30.189Z,4.83
2023-04-08T01:08:00.983Z,4.81
2023-04-08T01:10:31.628Z,4.83
2023-04-08T01:13:02.935Z,4.81
2023-04-08T01:15:32.078Z,4.80
2023-04-08T01:18:02.218Z,4.80
2023-04-08T01:20:30.730Z,4.81
2023-04-08T01:23:07.317Z,4.78
2023-04-08T01:25:37.255Z,4.81
2023-04-08T01:28:08.566Z,4.81
2023-04-08T01:30:39.305Z,4.78
2023-04-08T01:33:07.899Z,4.80
2023-04-08T01:35:37.169Z,4.81
2023-04-08T01:38:06.717Z,4.81
2023-04-08T01:40:35.835Z,4.84
2023-04-08T01:43:07.105Z,4.84
2023-04-08T01:45:35.536Z,4.84
2023-04-08T01:48:04.611Z,4.83
2023-04-08T01:50:33.517Z,4.83
2023-04-08T01:53:02.350Z,4.81
2023-04-08T01:55:31.797Z,4.81
2023-04-08T01:58:01.814Z,4.81
2023-04-08T02:00:32.636Z,4.83
2023-04-08T02:03:02.097Z,4.83
2023-04-08T02:05:30.431Z,4.83
2023-04-08T02:07:58.462Z,4.81
2023-04-08T02:10:26.542Z,4.84
2023-04-08T02:12:54.822Z,4.81
2023-04-08T02:15:23.054Z,4.81
2023-04-08T02:17:56.388Z,4.81
2023-04-08T02:20:32.248Z,4.81
2023-04-08T02:23:04.698Z,4.83
2023-04-08T02:25:36.062Z,4.81
2023-04-08T02:28:04.846Z,4.81
2023-04-08T02:30:34.104Z,4.81
2023-04-08T02:33:05.231Z,4.81
2023-04-08T02:35:33.918Z,4.81
2023-04-08T02:38:02.163Z,4.81
2023-04-08T02:40:32.530Z,4.83
2023-04-08T02:43:03.354Z,4.84
2023-04-08T02:45:33.793Z,4.81
2023-04-08T02:48:03.501Z,4.81
2023-04-08T02:50:31.826Z,4.81
2023-04-08T02:53:00.164Z,4.80
2023-04-08T02:55:28.623Z,4.84
2023-04-08T02:57:59.147Z,4.83
2023-04-08T03:00:28.382Z,4.85
2023-04-08T03:02:56.585Z,4.83
2023-04-08T03:05:27.297Z,4.84
2023-04-08T03:07:55.491Z,4.83
2023-04-08T03:10:24.013Z,4.84
2023-04-08T03:12:52.128Z,4.81
2023-04-08T03:15:21.403Z,4.80
2023-04-08T03:17:49.682Z,4.81
2023-04-08T03:20:21.580Z,4.81
2023-04-08T03:22:51.480Z,4.80
2023-04-08T03:25:24.661Z,4.81
2023-04-08T03:27:53.048Z,4.83
2023-04-08T03:30:21.490Z,4.83
2023-04-08T03:32:49.766Z,4.81
2023-04-08T03:35:18.412Z,4.84
2023-04-08T03:37:46.750Z,4.83
2023-04-08T03:40:16.340Z,4.83
2023-04-08T03:42:44.589Z,4.84
2023-04-08T03:45:13.743Z,4.83
2023-04-08T03:47:42.692Z,4.84
2023-04-08T03:50:11.642Z,4.83
2023-04-08T03:52:39.949Z,4.83
2023-04-08T03:55:08.666Z,4.85
2023-04-08T03:57:40.447Z,4.87
2023-04-08T04:00:09.821Z,4.87
2023-04-08T04:02:38.099Z,4.85
2023-04-08T04:05:06.897Z,4.88
2023-04-08T04:07:34.952Z,4.89
2023-04-08T04:10:03.138Z,4.91
2023-04-08T04:12:31.179Z,4.94
2023-04-08T04:15:00.696Z,4.87
2023-04-08T04:17:28.903Z,4.88
2023-04-08T04:19:57.263Z,4.91
2023-04-08T04:22:26.368Z,4.91
2023-04-08T04:24:54.884Z,4.89
2023-04-08T04:27:22.914Z,4.91
2023-04-08T04:29:51.007Z,4.91
2023-04-08T04:32:22.630Z,4.91
2023-04-08T04:34:51.491Z,4.98
2023-04-08T04:37:19.540Z,4.95
2023-04-08T04:39:51.718Z,4.91
2023-04-08T04:42:19.954Z,4.95
2023-04-08T04:44:49.311Z,4.95
2023-04-08T04:47:17.560Z,4.95
2023-04-08T04:49:48.059Z,4.97
2023-04-08T04:52:16.071Z,4.97
2023-04-08T04:54:45.089Z,4.97
2023-04-08T04:57:14.779Z,4.98
2023-04-08T04:59:42.860Z,4.98
2023-04-08T05:02:12.337Z,5.01
2023-04-08T05:04:40.563Z,5.03
2023-04-08T05:07:10.344Z,4.99
2023-04-08T05:09:41.119Z,5.04
2023-04-08T05:12:09.221Z,5.04
2023-04-08T05:14:37.507Z,5.08
2023-04-08T05:17:06.513Z,5.09
2023-04-08T05:19:34.790Z,5.09
2023-04-08T05:22:02.969Z,5.09
2023-04-08T05:24:32.776Z,5.14
2023-04-08T05:27:01.229Z,5.14
2023-04-08T05:29:29.322Z,5.15
2023-04-08T05:31:59.616Z,5.15
2023-04-08T05:34:27.734Z,5.16
2023-04-08T05:36:58.086Z,5.18
2023-04-08T05:39:26.625Z,5.18
2023-04-08T05:41:56.105Z,5.15
2023-04-08T05:44:24.804Z,5.16
2023-04-08T05:46:53.115Z,5.15
2023-04-08T05:49:22.546Z,5.15
2023-04-08T05:51:50.819Z,5.18
2023-04-08T05:54:21.416Z,5.18
2023-04-08T05:56:49.725Z,5.21
2023-04-08T05:59:19.078Z,5.21
2023-04-08T06:01:47.186Z,5.22
2023-04-08T06:04:17.940Z,5.25
2023-04-08T06:06:49.901Z,5.24
2023-04-08T06:09:19.322Z,5.26
2023-04-08T06:11:50.689Z,5.31
2023-04-08T06:14:21.003Z,5.29
2023-04-08T06:16:49.042Z,5.32
2023-04-08T06:19:17.777Z,5.34
2023-04-08T06:21:45.954Z,5.38
2023-04-08T06:24:13.969Z,5.52
2023-04-08T06:26:42.553Z,5.90
2023-04-08T06:29:10.703Z,6.14
2023-04-08T06:31:40.098Z,6.24
2023-04-08T06:34:08.204Z,6.32
2023-04-08T06:36:36.886Z,6.36
2023-04-08T06:39:04.985Z,6.41
2023-04-08T06:41:33.045Z,6.29
2023-04-08T06:44:01.412Z,6.29
2023-04-08T06:46:29.569Z,6.46
2023-04-08T06:48:59.033Z,6.62
2023-04-08T06:51:28.056Z,6.72
2023-04-08T06:53:56.372Z,6.83
2023-04-08T06:56:26.246Z,6.92
2023-04-08T06:58:54.263Z,6.87
2023-04-08T07:01:22.705Z,6.77
2023-04-08T07:03:51.064Z,6.87
2023-04-08T07:06:20.641Z,6.87
2023-04-08T07:08:49.058Z,7.01
2023-04-08T07:11:17.265Z,6.93
2023-04-08T07:13:45.450Z,7.10
2023-04-08T07:16:13.454Z,7.08
2023-04-08T07:18:42.545Z,7.25
2023-04-08T07:21:10.668Z,7.13
2023-04-08T07:23:40.387Z,7.08
2023-04-08T07:26:08.541Z,7.17
2023-04-08T07:28:36.532Z,7.08
2023-04-08T07:31:12.204Z,6.92
2023-04-08T07:33:40.330Z,6.79
2023-04-08T07:36:08.717Z,6.68
2023-04-08T07:38:36.785Z,6.66
2023-04-08T07:41:06.405Z,6.62
2023-04-08T07:43:37.319Z,6.62
2023-04-08T07:46:05.981Z,6.62
2023-04-08T07:48:35.002Z,6.66
2023-04-08T07:51:09.332Z,6.71
2023-04-08T07:53:39.282Z,6.75
2023-04-08T07:56:13.413Z,6.80
2023-04-08T07:58:41.820Z,6.92
2023-04-08T08:01:17.935Z,6.99
2023-04-08T08:03:47.684Z,7.01
2023-04-08T08:06:16.421Z,7.10
2023-04-08T08:08:44.668Z,7.21
2023-04-08T08:11:14.095Z,7.23
2023-04-08T08:13:42.344Z,7.17
2023-04-08T08:16:11.911Z,7.24
2023-04-08T08:18:41.155Z,7.28
2023-04-08T08:21:09.658Z,7.18
2023-04-08T08:23:38.451Z,7.23
2023-04-08T08:26:09.708Z,7.32
2023-04-08T08:28:39.625Z,7.34
2023-04-08T08:31:08.133Z,7.32
2023-04-08T08:33:36.726Z,7.42
2023-04-08T08:36:05.918Z,7.58
2023-04-08T08:38:34.202Z,7.72
2023-04-08T08:41:04.044Z,7.86
2023-04-08T08:43:33.642Z,7.94
2023-04-08T08:46:03.749Z,7.96
2023-04-08T08:48:32.760Z,8.06
2023-04-08T08:51:01.270Z,8.17
2023-04-08T08:53:33.473Z,8.30
2023-04-08T08:58:34.783Z,8.42
2023-04-08T09:01:04.148Z,8.48
2023-04-08T09:03:32.624Z,8.48
2023-04-08T09:06:02.544Z,8.44
2023-04-08T09:08:32.581Z,8.42
2023-04-08T09:11:18.149Z,8.37
2023-04-08T09:13:46.633Z,8.33
2023-04-08T09:16:18.351Z,8.29
2023-04-08T09:18:49.501Z,8.42
2023-04-08T09:21:18.706Z,8.42
2023-04-08T09:23:48.181Z,8.36
2023-04-08T09:26:17.620Z,8.26
2023-04-08T09:28:58.685Z,8.36
2023-04-08T09:31:29.252Z,8.42
2023-04-08T09:33:58.553Z,8.42
2023-04-08T09:36:27.958Z,8.47
2023-04-08T09:38:58.950Z,8.71
2023-04-08T09:41:29.828Z,8.85
2023-04-08T09:43:59.245Z,8.82
2023-04-08T09:46:34.641Z,8.81
2023-04-08T09:49:07.236Z,9.00
2023-04-08T09:51:39.742Z,9.05
2023-04-08T09:54:13.833Z,8.99
2023-04-08T09:56:49.949Z,8.90
2023-04-08T09:59:21.823Z,8.89
2023-04-08T10:01:54.423Z,8.73
2023-04-08T10:04:24.402Z,8.67
2023-04-08T10:06:55.456Z,8.64
2023-04-08T10:09:23.865Z,8.68
2023-04-08T10:11:52.069Z,8.60
2023-04-08T10:14:22.179Z,8.62
2023-04-08T10:16:52.014Z,8.60
2023-04-08T10:19:41.428Z,8.55
2023-04-08T10:22:47.962Z,8.62
2023-04-08T10:25:30.882Z,8.65
2023-04-08T10:27:59.461Z,8.73
2023-04-08T10:30:41.182Z,8.81
2023-04-08T10:33:15.506Z,8.81
2023-04-08T10:35:46.380Z,8.86
2023-04-08T10:38:16.068Z,8.86
2023-04-08T10:40:45.178Z,8.83
2023-04-08T10:43:14.355Z,8.95
2023-04-08T10:45:43.106Z,8.96
2023-04-08T10:48:17.787Z,8.95
2023-04-08T10:50:46.821Z,8.95
2023-04-08T10:53:15.061Z,8.92
2023-04-08T10:55:43.718Z,8.85
2023-04-08T10:58:12.768Z,8.81
2023-04-08T11:00:41.675Z,8.78
2023-04-08T11:03:16.085Z,8.90
2023-04-08T11:05:45.601Z,9.06
2023-04-08T11:08:13.650Z,9.27
2023-04-08T11:10:41.980Z,9.52
2023-04-08T11:13:10.747Z,9.73
2023-04-08T11:15:38.939Z,9.79
2023-04-08T11:18:07.261Z,9.91
2023-04-08T11:20:38.389Z,10.09
2023-04-08T11:23:14.894Z,10.25
2023-04-08T11:25:43.281Z,10.34
2023-04-08T11:28:11.687Z,10.36
2023-04-08T11:30:40.467Z,10.34
2023-04-08T11:33:09.148Z,10.30
2023-04-08T11:35:41.094Z,10.33
2023-04-08T11:38:11.185Z,10.45
2023-04-08T11:40:39.610Z,10.52
2023-04-08T11:43:11.539Z,10.45
2023-04-08T11:45:40.333Z,10.52
2023-04-08T11:48:11.690Z,10.53
2023-04-08T11:50:39.917Z,10.57
2023-04-08T11:53:19.628Z,10.67
2023-04-08T11:55:48.556Z,10.73
2023-04-08T11:58:16.961Z,10.70
2023-04-08T12:00:45.673Z,10.70
2023-04-08T12:03:14.134Z,10.84
2023-04-08T12:05:42.608Z,10.97
2023-04-08T12:08:10.945Z,10.78
2023-04-08T12:10:42.619Z,10.67
2023-04-08T12:13:10.775Z,10.74
2023-04-08T12:15:38.888Z,10.83
2023-04-08T12:18:07.212Z,10.89
2023-04-08T12:20:35.234Z,10.92
2023-04-08T12:23:03.318Z,11.12
2023-04-08T12:25:32.165Z,11.49
2023-04-08T12:28:02.753Z,11.62
2023-04-08T12:30:31.853Z,11.52
2023-04-08T12:33:00.751Z,11.52
2023-04-08T12:35:28.888Z,11.40
2023-04-08T12:37:56.962Z,11.56
2023-04-08T12:40:25.014Z,11.60
2023-04-08T12:42:53.125Z,11.52
2023-04-08T12:45:22.608Z,11.50
2023-04-08T12:47:51.855Z,11.46
2023-04-08T12:50:20.053Z,11.38
2023-04-08T12:52:48.160Z,11.36
2023-04-08T12:55:16.501Z,11.35
2023-04-08T12:57:45.027Z,11.29
2023-04-08T13:00:14.399Z,11.31
2023-04-08T13:02:44.305Z,11.28
2023-04-08T13:05:12.565Z,11.32
2023-04-08T13:07:40.691Z,11.45
2023-04-08T13:10:09.800Z,11.46
2023-04-08T13:12:40.135Z,11.50
2023-04-08T13:15:10.081Z,11.57
2023-04-08T13:17:38.169Z,11.57
2023-04-08T13:20:10.776Z,11.60
2023-04-08T13:22:38.832Z,11.56
2023-04-08T13:25:07.364Z,11.47
2023-04-08T13:27:35.435Z,11.42
2023-04-08T13:30:03.653Z,11.36
2023-04-08T13:32:32.926Z,11.32
2023-04-08T13:35:02.888Z,11.24
2023-04-08T13:37:32.338Z,11.21
2023-04-08T13:40:00.395Z,11.21
2023-04-08T13:42:28.458Z,11.19
2023-04-08T13:44:56.548Z,11.19
2023-04-08T13:47:24.740Z,11.18
2023-04-08T13:49:53.389Z,11.12
2023-04-08T13:52:21.495Z,11.10
2023-04-08T13:54:50.942Z,11.16
2023-04-08T13:57:18.975Z,11.14
2023-04-08T13:59:46.979Z,11.19
2023-04-08T14:02:15.035Z,11.25
2023-04-08T14:04:43.708Z,11.32
2023-04-08T14:07:11.788Z,11.39
2023-04-08T14:09:39.974Z,11.49
2023-04-08T14:12:09.619Z,11.59
2023-04-08T14:14:37.611Z,11.57
2023-04-08T14:17:09.577Z,11.59
2023-04-08T14:19:37.774Z,11.64
2023-04-08T14:22:05.855Z,11.67
2023-04-08T14:24:34.412Z,11.76
2023-04-08T14:27:03.485Z,11.87
2023-04-08T14:29:32.807Z,11.93
2023-04-08T14:32:01.427Z,12.04
2023-04-08T14:34:29.495Z,12.10
2023-04-08T14:36:57.594Z,12.07
2023-04-08T14:39:25.977Z,12.01
2023-04-08T14:41:54.064Z,11.97
2023-04-08T14:44:22.047Z,11.86
2023-04-08T14:46:51.554Z,11.77
2023-04-08T14:49:19.774Z,11.64
2023-04-08T14:51:47.828Z,11.56
2023-04-08T14:54:16.819Z,11.57
2023-04-08T14:56:44.914Z,11.62
2023-04-08T14:59:12.992Z,11.66
2023-04-08T15:01:48.786Z,11.67
2023-04-08T15:04:18.221Z,11.77
2023-04-08T15:06:46.308Z,11.83
2023-04-08T15:09:14.391Z,11.86
2023-04-08T15:11:42.498Z,11.87
2023-04-08T15:14:10.513Z,11.86
2023-04-08T15:16:38.722Z,11.91
2023-04-08T15:19:06.796Z,11.98
2023-04-08T15:21:36.292Z,11.98
2023-04-08T15:24:04.591Z,12.05
2023-04-08T15:26:33.405Z,12.11
2023-04-08T15:29:01.594Z,12.18
2023-04-08T15:31:29.708Z,12.20
2023-04-08T15:33:58.446Z,12.12
2023-04-08T15:36:26.695Z,12.12
2023-04-08T15:38:56.202Z,12.18
2023-04-08T15:41:24.352Z,12.22
2023-04-08T15:43:53.267Z,12.25
2023-04-08T15:46:21.817Z,12.24
2023-04-08T15:48:50.814Z,12.20
2023-04-08T15:51:20.319Z,12.20
2023-04-08T15:53:50.364Z,12.20
2023-04-08T15:56:20.398Z,12.17
2023-04-08T15:58:48.600Z,12.17
2023-04-08T16:01:18.728Z,12.17
2023-04-08T16:03:47.057Z,12.11
2023-04-08T16:06:15.579Z,12.11
2023-04-08T16:08:44.782Z,12.07
2023-04-08T16:11:12.930Z,12.11
2023-04-08T16:13:43.117Z,12.12
2023-04-08T16:16:12.344Z,12.08
2023-04-08T16:18:41.643Z,12.05
2023-04-08T16:21:09.737Z,12.03
2023-04-08T16:23:38.416Z,12.04
2023-04-08T16:26:07.997Z,12.01
2023-04-08T16:28:36.989Z,12.00
2023-04-08T16:31:06.852Z,11.98
2023-04-08T16:33:34.991Z,12.00
2023-04-08T16:36:04.335Z,12.00
2023-04-08T16:38:33.083Z,11.95
2023-04-08T16:41:01.445Z,11.97
2023-04-08T16:43:29.459Z,11.97
2023-04-08T16:45:57.547Z,12.01
2023-04-08T16:48:27.104Z,11.97
2023-04-08T16:50:55.396Z,11.95
2023-04-08T16:53:23.501Z,11.93
2023-04-08T16:55:52.077Z,11.91
2023-04-08T16:58:20.122Z,11.87
2023-04-08T17:00:48.184Z,11.76
2023-04-08T17:03:16.457Z,11.67
2023-04-08T17:05:46.048Z,11.59
2023-04-08T17:08:14.348Z,11.50
2023-04-08T17:10:43.345Z,11.40
2023-04-08T17:13:14.233Z,11.34
2023-04-08T17:15:43.393Z,11.25
2023-04-08T17:18:11.664Z,11.18
2023-04-08T17:20:39.714Z,11.16
2023-04-08T17:23:09.722Z,11.11
2023-04-08T17:25:38.139Z,11.07
2023-04-08T17:28:06.174Z,11.05
2023-04-08T17:30:34.380Z,11.01
2023-04-08T17:33:03.119Z,10.83
2023-04-08T17:35:32.555Z,10.56
2023-04-08T17:38:00.562Z,10.33
2023-04-08T17:40:30.010Z,10.18
2023-04-08T17:42:58.114Z,10.01
2023-04-08T17:45:26.486Z,9.88
2023-04-08T17:47:54.612Z,9.70
2023-04-08T17:50:22.744Z,9.55
2023-04-08T17:52:51.118Z,9.43
2023-04-08T17:55:19.221Z,9.33
2023-04-08T17:57:49.696Z,9.22
2023-04-08T18:00:17.840Z,9.15
2023-04-08T18:02:47.710Z,9.06
2023-04-08T18:05:17.686Z,8.98
2023-04-08T18:07:46.061Z,8.90
2023-04-08T18:10:14.310Z,8.83
2023-04-08T18:12:42.349Z,8.75
2023-04-08T18:15:12.392Z,8.68
2023-04-08T18:17:40.470Z,8.58
2023-04-08T18:20:09.530Z,8.55
2023-04-08T18:22:37.596Z,8.50
2023-04-08T18:25:06.458Z,8.45
2023-04-08T18:27:34.533Z,8.38
2023-04-08T18:30:02.570Z,8.37
2023-04-08T18:32:32.015Z,8.33
2023-04-08T18:35:00.186Z,8.31
2023-04-08T18:37:30.335Z,8.21
2023-04-08T18:39:58.951Z,8.20
2023-04-08T18:42:27.032Z,8.14
2023-04-08T18:44:55.384Z,8.11
2023-04-08T18:47:23.431Z,8.10
2023-04-08T18:49:52.833Z,8.06
2023-04-08T18:52:20.920Z,8.02
2023-04-08T18:54:49.164Z,8.03
2023-04-08T18:57:17.513Z,8.00
2023-04-08T18:59:47.629Z,7.93
2023-04-08T19:02:16.384Z,7.87
2023-04-08T19:04:44.499Z,7.89
2023-04-08T19:07:13.868Z,7.89
2023-04-08T19:09:41.900Z,7.85
2023-04-08T19:12:09.993Z,7.79
2023-04-08T19:14:37.962Z,7.78
2023-04-08T19:17:05.953Z,7.75
2023-04-08T19:19:34.551Z,7.72
2023-04-08T19:22:05.627Z,7.72
2023-04-08T19:24:35.150Z,7.71
2023-04-08T19:27:03.219Z,7.69
2023-04-08T19:29:32.807Z,7.71
2023-04-08T19:32:01.619Z,7.65
2023-04-08T19:34:29.991Z,7.62
2023-04-08T19:36:58.082Z,7.63
2023-04-08T19:39:27.591Z,7.61
2023-04-08T19:41:58.013Z,7.61
2023-04-08T19:44:26.277Z,7.58
2023-04-08T19:46:54.671Z,7.56
2023-04-08T19:49:22.790Z,7.54
2023-04-08T19:51:50.915Z,7.54
2023-04-08T19:54:19.089Z,7.51
2023-04-08T19:56:47.412Z,7.55
2023-04-08T19:59:17.164Z,7.54
2023-04-08T20:01:45.231Z,7.52
2023-04-08T20:04:13.423Z,7.50
2023-04-08T20:06:41.586Z,7.48
2023-04-08T20:09:09.618Z,7.48
2023-04-08T20:11:37.597Z,7.44
2023-04-08T20:14:05.586Z,7.41
2023-04-08T20:16:35.013Z,7.40
2023-04-08T20:19:03.044Z,7.36
2023-04-08T20:21:31.251Z,7.34
2023-04-08T20:23:59.309Z,7.31
2023-04-08T20:26:27.582Z,7.30
2023-04-08T20:28:58.484Z,7.23
2023-04-08T20:31:27.877Z,7.18
2023-04-08T20:33:57.305Z,7.14
2023-04-08T20:36:25.677Z,7.13
2023-04-08T20:38:54.930Z,7.13
2023-04-08T20:41:23.966Z,7.11
2023-04-08T20:43:53.255Z,7.14
2023-04-08T20:46:22.350Z,7.14
2023-04-08T20:48:50.835Z,7.14
2023-04-08T20:51:20.380Z,7.13
2023-04-08T20:53:48.454Z,7.13
2023-04-08T20:56:16.462Z,7.13
2023-04-08T20:58:44.502Z,7.10
2023-04-08T21:01:12.517Z,7.11
2023-04-08T21:03:40.711Z,7.11
2023-04-08T21:06:09.050Z,7.13
2023-04-08T21:08:38.398Z,7.11
2023-04-08T21:11:07.072Z,7.13
2023-04-08T21:13:35.178Z,7.14
2023-04-08T21:16:03.259Z,7.14
2023-04-08T21:18:31.444Z,7.13
2023-04-08T21:20:59.470Z,7.14
2023-04-08T21:23:28.219Z,7.13
2023-04-08T21:25:57.553Z,7.11
2023-04-08T21:28:26.357Z,7.11
2023-04-08T21:30:54.828Z,7.10
2023-04-08T21:33:23.100Z,7.08
2023-04-08T21:35:51.600Z,7.07
2023-04-08T21:38:21.301Z,7.03
2023-04-08T21:40:49.547Z,7.01
2023-04-08T21:43:18.877Z,7.00
2023-04-08T21:45:47.103Z,6.94
2023-04-08T21:48:15.420Z,6.90
2023-04-08T21:50:45.600Z,6.79
2023-04-08T21:53:13.691Z,6.71
2023-04-08T21:55:41.697Z,6.61
2023-04-08T21:58:12.146Z,6.49
2023-04-08T22:00:41.608Z,6.36
2023-04-08T22:03:09.829Z,6.21
2023-04-08T22:05:37.962Z,6.13
2023-04-08T22:08:06.439Z,6.04
2023-04-08T22:10:34.502Z,5.91
2023-04-08T22:13:02.908Z,5.76
2023-04-08T22:15:31.155Z,5.67
2023-04-08T22:18:01.672Z,5.59
2023-04-08T22:20:29.790Z,5.52
2023-04-08T22:22:57.801Z,5.47
2023-04-08T22:25:26.088Z,5.39
2023-04-08T22:27:54.065Z,5.36
2023-04-08T22:30:22.412Z,5.26
2023-04-08T22:32:50.603Z,5.16
2023-04-08T22:35:20.093Z,5.08
2023-04-08T22:37:48.090Z,4.98
2023-04-08T22:40:16.250Z,4.92
2023-04-08T22:42:44.336Z,4.85
2023-04-08T22:45:12.405Z,4.80
2023-04-08T22:47:40.400Z,4.68
2023-04-08T22:50:09.068Z,4.57
2023-04-08T22:52:38.344Z,4.49
2023-04-08T22:55:07.315Z,4.35
2023-04-08T22:57:35.391Z,4.29
2023-04-08T23:00:04.746Z,4.20
2023-04-08T23:02:32.978Z,4.18
2023-04-08T23:05:01.297Z,4.13
2023-04-08T23:07:29.376Z,4.05
2023-04-08T23:09:58.762Z,3.99
2023-04-08T23:12:26.763Z,3.97
2023-04-08T23:14:55.019Z,3.87
2023-04-08T23:17:23.097Z,3.74
2023-04-08T23:19:51.317Z,3.70
2023-04-08T23:22:19.352Z,3.63
2023-04-08T23:24:47.292Z,3.54
2023-04-08T23:27:22.285Z,3.49
2023-04-08T23:29:50.315Z,3.43
2023-04-08T23:32:18.367Z,3.34
2023-04-08T23:34:46.401Z,3.29
2023-04-08T23:37:14.455Z,3.22
2023-04-08T23:39:42.508Z,3.13
2023-04-08T23:42:10.549Z,3.06
2023-04-08T23:44:39.859Z,3.02
2023-04-08T23:47:07.859Z,2.98
2023-04-08T23:49:36.146Z,3.01
2023-04-08T23:52:04.548Z,2.92
2023-04-08T23:54:33.807Z,2.92
2023-04-08T23:57:02.111Z,2.89
2023-04-08T23:59:30.159Z,2.84
